createdAt,value
2018-04-11T00:01:13.778Z,12.43
2018-04-11T00:03:17.839Z,12.50
2018-04-11T00:05:21.896Z,12.33
2018-04-11T00:07:25.919Z,9.57
2018-04-11T00:09:29.972Z,10.60
2018-04-11T00:11:33.981Z,14.33
2018-04-11T00:13:37.995Z,8.70
2018-04-11T00:15:42.181Z,12.40
2018-04-11T00:17:46.200Z,10.97
2018-04-11T00:19:50.267Z,10.30
2018-04-11T00:21:54.274Z,11.50
2018-04-11T00:23:58.288Z,12.60
2018-04-11T00:26:02.324Z,11.20
2018-04-11T00:28:06.354Z,12.13
2018-04-11T00:30:10.406Z,14.03
2018-04-11T00:32:14.426Z,15.37
2018-04-11T00:34:18.476Z,12.40
2018-04-11T00:36:22.527Z,15.10
2018-04-11T00:38:26.618Z,12.97
2018-04-11T00:40:30.686Z,15.50
2018-04-11T00:42:34.698Z,20.27
2018-04-11T00:44:38.717Z,15.10
2018-04-11T00:46:42.778Z,14.67
2018-04-11T00:48:46.800Z,15.97
2018-04-11T00:50:50.839Z,23.67
2018-04-11T00:53:00.968Z,20.90
2018-04-11T00:55:04.982Z,20.50
2018-04-11T00:57:09.050Z,17.57
2018-04-11T00:59:13.068Z,16.73
2018-04-11T01:01:17.088Z,24.50
2018-04-11T01:03:21.146Z,19.73
2018-04-11T01:05:25.151Z,17.57
2018-04-11T01:07:29.210Z,19.70
2018-04-11T01:09:33.237Z,18.60
2018-04-11T01:11:37.424Z,18.57
2018-04-11T01:13:41.496Z,22.00
2018-04-11T01:15:45.512Z,26.57
2018-04-11T01:17:49.577Z,27.17
2018-04-11T01:19:53.596Z,26.00
2018-04-11T01:21:58.762Z,20.60
2018-04-11T01:24:02.802Z,23.43
2018-04-11T01:26:06.828Z,21.10
2018-04-11T01:28:10.853Z,25.70
2018-04-11T01:30:14.878Z,17.37
2018-04-11T01:32:18.923Z,20.50
2018-04-11T01:34:22.982Z,19.20
2018-04-11T01:36:27.014Z,19.70
2018-04-11T01:38:31.073Z,18.40
2018-04-11T01:40:35.107Z,20.23
2018-04-11T01:42:39.135Z,17.77
2018-04-11T01:44:43.207Z,25.43
2018-04-11T01:46:47.219Z,17.57
2018-04-11T01:48:51.283Z,19.20
2018-04-11T01:50:55.320Z,15.37
2018-04-11T01:52:59.439Z,13.83
2018-04-11T01:55:03.507Z,15.30
2018-04-11T01:57:07.519Z,12.60
2018-04-11T01:59:11.751Z,16.13
2018-04-11T02:01:15.770Z,14.40
2018-04-11T02:03:19.788Z,12.00
2018-04-11T02:05:25.023Z,12.87
2018-04-11T02:07:29.132Z,11.17
2018-04-11T02:09:33.240Z,10.30
2018-04-11T02:11:37.277Z,10.77
2018-04-11T02:13:41.298Z,10.23
2018-04-11T02:15:45.375Z,9.27
2018-04-11T02:17:49.416Z,11.70
2018-04-11T02:19:53.482Z,7.93
2018-04-11T02:21:57.573Z,13.93
2018-04-11T02:24:01.577Z,9.20
2018-04-11T02:26:05.627Z,11.30
2018-04-11T02:28:09.643Z,10.50
2018-04-11T02:30:13.699Z,10.33
2018-04-11T02:32:17.730Z,11.87
2018-04-11T02:34:21.763Z,10.70
2018-04-11T02:36:25.804Z,8.57
2018-04-11T02:38:29.830Z,10.20
2018-04-11T02:40:33.892Z,9.03
2018-04-11T02:42:37.919Z,16.90
2018-04-11T02:44:41.980Z,8.60
2018-04-11T02:46:46.025Z,17.60
2018-04-11T02:48:50.036Z,8.53
2018-04-11T02:50:54.083Z,8.33
2018-04-11T02:52:58.096Z,9.10
2018-04-11T02:55:02.143Z,16.63
2018-04-11T02:57:06.210Z,10.03
2018-04-11T02:59:10.242Z,7.83
2018-04-11T03:01:14.310Z,7.20
2018-04-11T03:03:18.330Z,8.43
2018-04-11T03:05:22.364Z,7.40
2018-04-11T03:07:26.545Z,10.23
2018-04-11T03:09:30.569Z,9.30
2018-04-11T03:11:34.740Z,8.17
2018-04-11T03:13:38.867Z,8.37
2018-04-11T03:15:44.029Z,9.33
2018-04-11T03:17:48.122Z,10.80
2018-04-11T03:19:52.153Z,12.10
2018-04-11T03:21:56.264Z,9.50
2018-04-11T03:24:00.297Z,9.67
2018-04-11T03:26:04.326Z,12.57
2018-04-11T03:28:08.423Z,12.53
2018-04-11T03:30:12.433Z,10.03
2018-04-11T03:32:16.459Z,8.87
2018-04-11T03:34:20.523Z,9.40
2018-04-11T03:36:24.571Z,8.50
2018-04-11T03:38:28.945Z,10.50
2018-04-11T03:40:33.605Z,11.50
2018-04-11T03:42:37.668Z,12.73
2018-04-11T03:44:41.700Z,13.77
2018-04-11T03:46:45.853Z,22.33
2018-04-11T03:48:49.938Z,11.20
2018-04-11T03:50:53.970Z,13.80
2018-04-11T03:53:03.298Z,16.50
2018-04-11T03:55:07.351Z,15.40
2018-04-11T03:57:11.382Z,12.10
2018-04-11T03:59:15.587Z,9.67
2018-04-11T04:01:19.612Z,11.47
2018-04-11T04:03:23.635Z,15.43
2018-04-11T04:05:27.677Z,11.47
2018-04-11T04:07:31.705Z,21.30
2018-04-11T04:09:35.744Z,10.60
2018-04-11T04:11:39.791Z,12.13
2018-04-11T04:13:49.691Z,10.07
2018-04-11T04:15:59.730Z,11.23
2018-04-11T04:18:09.715Z,17.70
2018-04-11T04:20:28.616Z,10.97
2018-04-11T04:22:32.624Z,12.17
2018-04-11T04:24:37.786Z,16.17
2018-04-11T04:26:41.888Z,14.13
2018-04-11T04:28:46.398Z,15.20
2018-04-11T04:30:50.442Z,11.80
2018-04-11T04:32:54.459Z,11.27
2018-04-11T04:34:58.525Z,14.43
2018-04-11T04:37:02.556Z,13.80
2018-04-11T04:39:06.594Z,13.70
2018-04-11T04:41:10.636Z,16.93
2018-04-11T04:43:14.653Z,13.57
2018-04-11T04:45:18.685Z,17.57
2018-04-11T04:47:22.755Z,12.20
2018-04-11T04:49:26.796Z,12.00
2018-04-11T04:51:30.907Z,12.13
2018-04-11T04:53:34.986Z,14.43
2018-04-11T04:55:38.997Z,12.73
2018-04-11T04:57:43.042Z,21.30
2018-04-11T04:59:47.083Z,12.53
2018-04-11T05:01:51.120Z,11.97
2018-04-11T05:03:55.227Z,11.37
2018-04-11T05:05:59.247Z,14.87
2018-04-11T05:08:04.010Z,11.97
2018-04-11T05:10:08.027Z,11.73
2018-04-11T05:12:12.059Z,11.50
2018-04-11T05:14:16.167Z,12.50
2018-04-11T05:16:20.159Z,11.97
2018-04-11T05:18:24.205Z,12.97
2018-04-11T05:20:28.225Z,11.27
2018-04-11T05:22:32.292Z,11.73
2018-04-11T05:24:36.330Z,9.50
2018-04-11T05:26:40.356Z,11.00
2018-04-11T05:28:44.400Z,11.43
2018-04-11T05:30:48.477Z,10.50
2018-04-11T05:32:53.000Z,14.47
2018-04-11T05:34:57.190Z,15.27
2018-04-11T05:37:01.783Z,15.23
2018-04-11T05:39:05.837Z,23.67
2018-04-11T05:41:09.870Z,17.00
2018-04-11T05:43:14.026Z,14.53
2018-04-11T05:45:18.067Z,13.40
2018-04-11T05:47:22.097Z,11.60
2018-04-11T05:49:26.133Z,16.00
2018-04-11T05:51:30.154Z,13.53
2018-04-11T05:53:34.191Z,18.03
2018-04-11T05:55:38.221Z,16.53
2018-04-11T05:57:42.226Z,12.80
2018-04-11T05:59:46.261Z,11.23
2018-04-11T06:01:50.281Z,11.80
2018-04-11T06:03:54.312Z,12.53
2018-04-11T06:05:58.340Z,12.13
2018-04-11T06:08:02.582Z,11.77
2018-04-11T06:10:06.617Z,11.60
2018-04-11T06:12:10.692Z,15.27
2018-04-11T06:14:15.027Z,12.27
2018-04-11T06:16:19.050Z,14.60
2018-04-11T06:18:23.044Z,12.37
2018-04-11T06:20:27.095Z,13.20
2018-04-11T06:22:32.321Z,10.10
2018-04-11T06:24:36.370Z,13.30
2018-04-11T06:26:40.380Z,12.83
2018-04-11T06:28:44.409Z,11.77
2018-04-11T06:30:48.437Z,13.27
2018-04-11T06:32:52.440Z,11.20
2018-04-11T06:34:57.652Z,12.10
2018-04-11T06:37:01.669Z,11.70
2018-04-11T06:39:05.677Z,11.00
2018-04-11T06:41:09.726Z,13.30
2018-04-11T06:43:13.733Z,14.03
2018-04-11T06:45:17.769Z,17.10
2018-04-11T06:47:21.840Z,13.93
2018-04-11T06:49:26.011Z,17.43
2018-04-11T06:51:30.073Z,13.70
2018-04-11T06:53:34.115Z,15.10
2018-04-11T06:55:38.702Z,18.20
2018-04-11T06:57:42.769Z,14.17
2018-04-11T06:59:46.778Z,13.37
2018-04-11T07:01:50.887Z,14.00
2018-04-11T07:03:54.907Z,15.87
2018-04-11T07:05:58.923Z,13.40
2018-04-11T07:08:02.958Z,12.07
2018-04-11T07:10:07.005Z,13.30
2018-04-11T07:12:11.055Z,12.97
2018-04-11T07:14:15.073Z,13.63
2018-04-11T07:16:19.160Z,15.50
2018-04-11T07:18:23.201Z,14.13
2018-04-11T07:20:27.220Z,21.47
2018-04-11T07:22:31.247Z,19.40
2018-04-11T07:24:35.256Z,22.03
2018-04-11T07:26:39.290Z,20.03
2018-04-11T07:28:43.320Z,16.20
2018-04-11T07:30:47.642Z,17.90
2018-04-11T07:32:51.721Z,15.87
2018-04-11T07:34:55.729Z,16.63
2018-04-11T07:36:59.775Z,18.83
2018-04-11T07:39:03.833Z,23.70
2018-04-11T07:41:07.844Z,18.90
2018-04-11T07:43:11.882Z,17.63
2018-04-11T07:45:15.914Z,14.90
2018-04-11T07:47:19.913Z,19.10
2018-04-11T07:49:24.032Z,17.27
2018-04-11T07:51:28.058Z,18.67
2018-04-11T07:53:32.089Z,16.17
2018-04-11T07:55:36.114Z,20.07
2018-04-11T07:57:40.966Z,16.83
2018-04-11T07:59:45.002Z,19.53
2018-04-11T08:01:49.015Z,16.30
2018-04-11T08:03:53.035Z,17.67
2018-04-11T08:05:57.103Z,17.67
2018-04-11T08:08:01.154Z,15.10
2018-04-11T08:10:05.268Z,17.07
2018-04-11T08:12:09.297Z,16.60
2018-04-11T08:14:13.362Z,19.77
2018-04-11T08:16:17.508Z,16.70
2018-04-11T08:18:21.556Z,19.77
2018-04-11T08:20:25.599Z,16.17
2018-04-11T08:22:29.633Z,16.40
2018-04-11T08:24:33.765Z,15.60
2018-04-11T08:26:37.797Z,29.50
2018-04-11T08:28:41.818Z,16.60
2018-04-11T08:30:45.875Z,14.87
2018-04-11T08:32:49.907Z,21.77
2018-04-11T08:34:53.963Z,18.10
2018-04-11T08:36:58.180Z,21.43
2018-04-11T08:39:02.213Z,18.60
2018-04-11T08:41:06.264Z,20.27
2018-04-11T08:43:10.317Z,18.47
2018-04-11T08:45:14.341Z,21.70
2018-04-11T08:47:18.439Z,16.37
2018-04-11T08:49:22.483Z,21.33
2018-04-11T08:51:26.522Z,20.27
2018-04-11T08:53:30.591Z,22.00
2018-04-11T08:55:34.623Z,24.57
2018-04-11T08:57:38.690Z,22.90
2018-04-11T08:59:42.784Z,28.50
2018-04-11T09:01:46.828Z,25.50
2018-04-11T09:03:50.870Z,27.80
2018-04-11T09:05:54.905Z,35.70
2018-04-11T09:07:58.902Z,26.67
2018-04-11T09:10:03.006Z,31.20
2018-04-11T09:12:07.047Z,33.40
2018-04-11T09:14:11.053Z,30.93
2018-04-11T09:16:15.071Z,28.13
2018-04-11T09:18:19.105Z,32.63
2018-04-11T09:20:23.155Z,34.13
2018-04-11T09:22:27.190Z,26.30
2018-04-11T09:24:31.221Z,26.13
2018-04-11T09:26:35.231Z,29.10
2018-04-11T09:28:39.288Z,32.20
2018-04-11T09:30:43.348Z,43.83
2018-04-11T09:32:47.376Z,29.23
2018-04-11T09:34:51.392Z,31.33
2018-04-11T09:36:55.615Z,30.13
2018-04-11T09:38:59.680Z,41.80
2018-04-11T09:41:03.722Z,32.57
2018-04-11T09:43:07.764Z,28.07
2018-04-11T09:45:11.804Z,34.93
2018-04-11T09:47:15.857Z,33.73
2018-04-11T09:49:19.903Z,37.93
2018-04-11T09:51:23.897Z,35.67
2018-04-11T09:53:30.073Z,31.97
2018-04-11T09:55:34.143Z,38.53
2018-04-11T09:57:38.252Z,43.20
2018-04-11T09:59:42.327Z,36.30
2018-04-11T10:01:50.416Z,42.23
2018-04-11T10:03:54.503Z,39.13
2018-04-11T10:05:58.521Z,46.53
2018-04-11T10:08:02.546Z,48.23
2018-04-11T10:10:06.587Z,42.50
2018-04-11T10:12:10.596Z,35.20
2018-04-11T10:14:14.952Z,35.43
2018-04-11T10:16:19.007Z,37.87
2018-04-11T10:18:23.058Z,42.60
2018-04-11T10:20:27.123Z,59.03
2018-04-11T10:22:31.153Z,46.30
2018-04-11T10:24:35.229Z,40.33
2018-04-11T10:26:40.419Z,38.13
2018-04-11T10:28:44.632Z,38.17
2018-04-11T10:30:48.744Z,42.70
2018-04-11T10:32:52.771Z,40.73
2018-04-11T10:34:56.781Z,41.83
2018-04-11T10:37:00.834Z,44.37
2018-04-11T10:39:05.831Z,39.63
2018-04-11T10:41:09.876Z,50.20
2018-04-11T10:43:13.976Z,40.37
2018-04-11T10:45:18.003Z,45.60
2018-04-11T10:47:22.059Z,45.13
2018-04-11T10:49:26.067Z,44.40
2018-04-11T10:51:30.158Z,46.63
2018-04-11T10:53:34.172Z,45.17
2018-04-11T10:55:38.201Z,43.90
2018-04-11T10:57:42.244Z,32.70
2018-04-11T10:59:46.266Z,35.53
2018-04-11T11:01:50.371Z,39.37
2018-04-11T11:03:54.378Z,38.67
2018-04-11T11:05:58.409Z,32.90
2018-04-11T11:08:02.470Z,32.63
2018-04-11T11:10:06.508Z,32.00
2018-04-11T11:12:10.587Z,28.00
2018-04-11T11:14:14.679Z,31.43
2018-04-11T11:16:18.727Z,27.43
2018-04-11T11:18:22.742Z,37.53
2018-04-11T11:20:26.748Z,26.53
2018-04-11T11:22:30.832Z,30.93
2018-04-11T11:24:34.852Z,23.97
2018-04-11T11:26:38.903Z,29.53
2018-04-11T11:28:42.928Z,24.40
2018-04-11T11:30:46.944Z,26.60
2018-04-11T11:32:51.007Z,27.90
2018-04-11T11:34:55.051Z,25.03
2018-04-11T11:36:59.143Z,21.53
2018-04-11T11:39:03.205Z,27.10
2018-04-11T11:41:07.251Z,26.23
2018-04-11T11:43:11.296Z,22.77
2018-04-11T11:45:15.405Z,21.70
2018-04-11T11:47:19.470Z,22.90
2018-04-11T11:49:23.513Z,19.20
2018-04-11T11:51:27.552Z,22.50
2018-04-11T11:53:31.595Z,18.00
2018-04-11T11:55:35.648Z,13.40
2018-04-11T11:57:39.686Z,17.83
2018-04-11T11:59:43.765Z,15.50
2018-04-11T12:01:47.806Z,11.87
2018-04-11T12:03:51.869Z,13.90
2018-04-11T12:05:55.959Z,15.97
2018-04-11T12:08:00.122Z,14.47
2018-04-11T12:10:04.200Z,15.13
2018-04-11T12:12:08.221Z,16.43
2018-04-11T12:14:12.323Z,21.30
2018-04-11T12:16:16.377Z,17.10
2018-04-11T12:18:20.661Z,16.43
2018-04-11T12:20:24.684Z,16.40
2018-04-11T12:22:28.722Z,14.90
2018-04-11T12:24:32.812Z,16.30
2018-04-11T12:26:37.945Z,16.00
2018-04-11T12:28:41.982Z,15.70
2018-04-11T12:30:46.022Z,17.83
2018-04-11T12:32:50.070Z,20.27
2018-04-11T12:34:54.124Z,20.43
2018-04-11T12:36:58.140Z,25.40
2018-04-11T12:39:02.186Z,31.33
2018-04-11T12:41:06.216Z,26.20
2018-04-11T12:43:10.241Z,26.50
2018-04-11T12:45:14.262Z,21.63
2018-04-11T12:47:18.287Z,21.30
2018-04-11T12:49:22.539Z,24.70
2018-04-11T12:51:26.573Z,29.40
2018-04-11T12:53:30.587Z,29.00
2018-04-11T12:55:34.654Z,28.63
2018-04-11T12:57:38.661Z,28.30
2018-04-11T12:59:42.701Z,27.40
2018-04-11T13:01:46.730Z,27.40
2018-04-11T13:03:50.748Z,22.83
2018-04-11T13:05:54.932Z,28.13
2018-04-11T13:07:58.929Z,29.13
2018-04-11T13:10:02.957Z,25.07
2018-04-11T13:12:07.024Z,28.03
2018-04-11T13:14:11.072Z,28.60
2018-04-11T13:16:15.104Z,29.80
2018-04-11T13:18:19.179Z,30.67
2018-04-11T13:20:23.243Z,37.40
2018-04-11T13:22:27.286Z,38.30
2018-04-11T13:24:31.301Z,41.37
2018-04-11T13:26:35.333Z,40.87
2018-04-11T13:28:39.409Z,40.23
2018-04-11T13:30:43.486Z,39.43
2018-04-11T13:32:47.501Z,38.00
2018-04-11T13:34:51.736Z,39.80
2018-04-11T13:36:55.901Z,43.30
2018-04-11T13:39:00.022Z,46.47
2018-04-11T13:41:04.125Z,47.30
2018-04-11T13:43:08.149Z,42.63
2018-04-11T13:45:12.181Z,45.23
2018-04-11T13:47:16.201Z,40.53
2018-04-11T13:49:20.217Z,50.97
2018-04-11T13:51:24.265Z,41.00
2018-04-11T13:53:28.315Z,44.90
2018-04-11T13:55:32.414Z,39.30
2018-04-11T13:57:36.638Z,40.43
2018-04-11T13:59:40.638Z,47.23
2018-04-11T14:01:44.956Z,44.07
2018-04-11T14:03:49.226Z,43.03
2018-04-11T14:05:53.269Z,41.77
2018-04-11T14:07:57.333Z,45.00
2018-04-11T14:10:01.421Z,46.07
2018-04-11T14:12:05.477Z,53.97
2018-04-11T14:14:11.025Z,51.67
2018-04-11T14:16:15.078Z,44.37
2018-04-11T14:18:19.142Z,49.10
2018-04-11T14:20:23.161Z,52.90
2018-04-11T14:22:27.342Z,45.57
2018-04-11T14:24:31.381Z,43.27
2018-04-11T14:26:36.637Z,47.30
2018-04-11T14:28:40.847Z,45.10
2018-04-11T14:30:45.022Z,45.77
2018-04-11T14:32:49.080Z,42.93
2018-04-11T14:34:53.101Z,44.90
2018-04-11T14:36:57.177Z,39.77
2018-04-11T14:39:01.203Z,40.80
2018-04-11T14:41:05.275Z,36.83
2018-04-11T14:43:09.339Z,39.13
2018-04-11T14:45:13.415Z,33.90
2018-04-11T14:47:17.434Z,31.90
2018-04-11T14:49:21.506Z,34.17
2018-04-11T14:51:25.556Z,47.43
2018-04-11T14:53:29.557Z,37.23
2018-04-11T14:55:33.580Z,37.53
2018-04-11T14:57:37.604Z,42.87
2018-04-11T14:59:41.651Z,49.77
2018-04-11T15:01:46.474Z,49.73
2018-04-11T15:03:50.478Z,51.57
2018-04-11T15:05:54.540Z,55.80
2018-04-11T15:07:58.572Z,60.00
2018-04-11T15:10:02.602Z,49.73
2018-04-11T15:12:06.654Z,54.70
2018-04-11T15:14:10.811Z,53.40
2018-04-11T15:16:14.879Z,46.70
2018-04-11T15:18:18.911Z,49.37
2018-04-11T15:20:22.977Z,51.83
2018-04-11T15:22:26.991Z,54.90
2018-04-11T15:24:30.994Z,50.47
2018-04-11T15:26:35.036Z,50.70
2018-04-11T15:28:39.058Z,57.40
2018-04-11T15:30:43.104Z,57.20
2018-04-11T15:32:47.149Z,57.73
2018-04-11T15:34:51.536Z,51.60
2018-04-11T15:36:56.250Z,56.70
2018-04-11T15:39:00.253Z,63.33
2018-04-11T15:41:04.291Z,48.60
2018-04-11T15:43:08.310Z,61.00
2018-04-11T15:45:12.369Z,56.03
2018-04-11T15:47:16.419Z,56.17
2018-04-11T15:49:21.509Z,52.70
2018-04-11T15:51:25.567Z,56.67
2018-04-11T15:53:29.679Z,55.80
2018-04-11T15:55:33.689Z,51.40
2018-04-11T15:57:37.753Z,53.50
2018-04-11T15:59:41.763Z,53.40
2018-04-11T16:01:45.781Z,44.90
2018-04-11T16:03:49.841Z,49.77
2018-04-11T16:05:53.890Z,46.87
2018-04-11T16:07:57.886Z,47.03
2018-04-11T16:10:01.971Z,44.90
2018-04-11T16:12:06.001Z,48.27
2018-04-11T16:14:10.048Z,46.57
2018-04-11T16:16:14.116Z,48.03
2018-04-11T16:18:18.135Z,41.27
2018-04-11T16:20:22.222Z,45.07
2018-04-11T16:22:26.266Z,43.80
2018-04-11T16:24:30.283Z,51.17
2018-04-11T16:26:34.319Z,46.00
2018-04-11T16:28:38.909Z,48.97
2018-04-11T16:30:42.961Z,45.80
2018-04-11T16:32:47.026Z,44.87
2018-04-11T16:34:51.122Z,45.03
2018-04-11T16:36:55.127Z,45.90
2018-04-11T16:38:59.193Z,49.33
2018-04-11T16:41:03.214Z,51.00
2018-04-11T16:43:07.249Z,54.60
2018-04-11T16:45:11.450Z,54.50
2018-04-11T16:47:15.472Z,47.70
2018-04-11T16:49:19.514Z,53.73
2018-04-11T16:51:23.599Z,47.70
2018-04-11T16:53:27.659Z,54.57
2018-04-11T16:55:31.728Z,51.80
2018-04-11T16:57:35.875Z,42.30
2018-04-11T16:59:39.927Z,49.30
2018-04-11T17:01:43.965Z,52.10
2018-04-11T17:03:48.008Z,48.97
2018-04-11T17:05:52.275Z,46.60
2018-04-11T17:07:56.729Z,49.03
2018-04-11T17:10:02.107Z,45.97
2018-04-11T17:12:06.170Z,43.77
2018-04-11T17:14:10.178Z,50.83
2018-04-11T17:16:14.874Z,50.00
2018-04-11T17:18:18.895Z,48.13
2018-04-11T17:20:28.825Z,42.80
2018-04-11T17:22:38.823Z,41.80
2018-04-11T17:24:48.684Z,38.87
2018-04-11T17:26:58.472Z,38.80
2018-04-11T17:31:35.421Z,40.00
2018-04-11T17:33:39.611Z,41.60
2018-04-11T17:35:43.631Z,40.80
2018-04-11T17:37:47.649Z,44.03
2018-04-11T17:39:51.735Z,44.80
2018-04-11T17:41:56.366Z,44.80
2018-04-11T17:44:00.640Z,39.60
2018-04-11T17:46:04.704Z,49.13
2018-04-11T17:48:08.818Z,43.20
2018-04-11T17:50:12.858Z,42.10
2018-04-11T17:52:16.866Z,60.43
2018-04-11T17:54:20.916Z,38.23
2018-04-11T17:56:24.979Z,48.33
2018-04-11T17:58:29.522Z,41.40
2018-04-11T18:00:34.920Z,41.73
2018-04-11T18:02:41.985Z,45.43
2018-04-11T18:04:46.414Z,45.57
2018-04-11T18:06:51.475Z,43.97
2018-04-11T18:08:57.335Z,45.40
2018-04-11T18:11:02.470Z,48.97
2018-04-11T18:13:08.010Z,43.03
2018-04-11T18:15:13.232Z,48.90
2018-04-11T18:17:19.855Z,46.87
2018-04-11T18:19:25.514Z,45.90
2018-04-11T18:21:31.685Z,47.77
2018-04-11T18:23:39.637Z,49.13
2018-04-11T18:25:43.785Z,45.60
2018-04-11T18:27:47.826Z,49.87
2018-04-11T18:29:51.859Z,49.53
2018-04-11T18:31:55.892Z,47.03
2018-04-11T18:33:59.930Z,53.27
2018-04-11T18:36:04.000Z,43.87
2018-04-11T18:38:08.105Z,48.17
2018-04-11T18:40:12.343Z,48.10
2018-04-11T18:42:16.421Z,46.73
2018-04-11T18:44:20.454Z,45.27
2018-04-11T18:46:24.694Z,41.10
2018-04-11T18:48:28.781Z,49.57
2018-04-11T18:50:32.823Z,47.40
2018-04-11T18:52:37.081Z,52.27
2018-04-11T18:54:41.126Z,54.13
2018-04-11T18:56:45.205Z,49.20
2018-04-11T18:58:49.327Z,50.47
2018-04-11T19:00:53.535Z,48.83
2018-04-11T19:02:58.631Z,49.70
2018-04-11T19:05:02.662Z,53.80
2018-04-11T19:07:08.863Z,54.17
2018-04-11T19:09:12.889Z,56.97
2018-04-11T19:11:17.116Z,57.23
2018-04-11T19:13:21.234Z,56.70
2018-04-11T19:15:25.501Z,56.70
2018-04-11T19:17:29.599Z,55.33
2018-04-11T19:19:33.800Z,59.03
2018-04-11T19:21:37.888Z,56.53
2018-04-11T19:23:41.940Z,55.80
2018-04-11T19:25:47.121Z,60.47
2018-04-11T19:27:51.235Z,59.77
2018-04-11T19:29:55.383Z,58.07
2018-04-11T19:31:59.445Z,58.23
2018-04-11T19:34:03.556Z,68.73
2018-04-11T19:36:08.567Z,66.67
2018-04-11T19:38:12.614Z,64.37
2018-04-11T19:40:16.707Z,71.10
2018-04-11T19:42:20.729Z,65.47
2018-04-11T19:44:24.812Z,56.17
2018-04-11T19:46:28.836Z,61.53
2018-04-11T19:48:32.861Z,73.63
2018-04-11T19:50:36.917Z,60.93
2018-04-11T19:52:41.099Z,69.37
2018-04-11T19:54:45.145Z,68.57
2018-04-11T19:56:49.198Z,64.80
2018-04-11T19:58:53.251Z,64.93
2018-04-11T20:00:57.348Z,73.20
2018-04-11T20:03:01.338Z,64.83
2018-04-11T20:05:05.350Z,65.73
2018-04-11T20:07:09.392Z,66.70
2018-04-11T20:09:13.427Z,61.87
2018-04-11T20:11:17.530Z,60.83
2018-04-11T20:13:21.600Z,62.00
2018-04-11T20:15:25.663Z,66.43
2018-04-11T20:17:29.709Z,63.63
2018-04-11T20:19:33.728Z,70.93
2018-04-11T20:21:37.866Z,67.00
2018-04-11T20:23:41.908Z,69.77
2018-04-11T20:25:45.930Z,66.03
2018-04-11T20:27:49.968Z,86.27
2018-04-11T20:29:54.094Z,71.83
2018-04-11T20:31:58.121Z,67.97
2018-04-11T20:34:02.180Z,71.70
2018-04-11T20:36:06.237Z,66.83
2018-04-11T20:38:10.267Z,78.67
2018-04-11T20:40:14.477Z,73.73
2018-04-11T20:42:18.514Z,72.87
2018-04-11T20:44:22.685Z,67.10
2018-04-11T20:46:26.757Z,63.10
2018-04-11T20:48:30.791Z,62.20
2018-04-11T20:50:34.865Z,62.83
2018-04-11T20:52:38.872Z,61.00
2018-04-11T20:54:42.936Z,58.37
2018-04-11T20:56:46.984Z,69.83
2018-04-11T20:58:51.089Z,55.27
2018-04-11T21:00:55.504Z,63.87
2018-04-11T21:02:59.542Z,69.97
2018-04-11T21:05:03.587Z,66.30
2018-04-11T21:07:07.617Z,65.13
2018-04-11T21:09:11.655Z,61.03
2018-04-11T21:11:15.686Z,77.70
2018-04-11T21:13:19.685Z,67.00
2018-04-11T21:15:23.703Z,58.53
2018-04-11T21:17:27.746Z,55.97
2018-04-11T21:19:31.821Z,54.73
2018-04-11T21:21:35.868Z,65.03
2018-04-11T21:23:39.902Z,62.63
2018-04-11T21:25:43.931Z,67.17
2018-04-11T21:27:47.980Z,58.10
2018-04-11T21:29:52.000Z,57.23
2018-04-11T21:31:56.044Z,59.27
2018-04-11T21:34:00.093Z,54.10
2018-04-11T21:36:04.123Z,55.50
2018-04-11T21:38:08.348Z,50.33
2018-04-11T21:40:12.373Z,67.73
2018-04-11T21:42:16.401Z,66.47
2018-04-11T21:44:20.536Z,78.27
2018-04-11T21:46:24.533Z,73.30
2018-04-11T21:48:28.571Z,75.90
2018-04-11T21:50:32.606Z,72.93
2018-04-11T21:52:36.633Z,79.00
2018-04-11T21:54:40.633Z,77.20
2018-04-11T21:56:44.812Z,64.07
2018-04-11T21:58:48.827Z,62.57
2018-04-11T22:00:52.863Z,58.77
2018-04-11T22:02:56.882Z,61.73
2018-04-11T22:05:00.936Z,67.03
2018-04-11T22:07:04.961Z,56.13
2018-04-11T22:09:08.964Z,59.27
2018-04-11T22:11:13.027Z,47.60
2018-04-11T22:13:17.064Z,58.13
2018-04-11T22:15:21.103Z,54.67
2018-04-11T22:17:25.205Z,66.13
2018-04-11T22:19:29.211Z,63.50
2018-04-11T22:21:33.243Z,56.40
2018-04-11T22:23:37.284Z,49.40
2018-04-11T22:25:41.338Z,57.77
2018-04-11T22:27:45.382Z,58.13
2018-04-11T22:29:49.540Z,51.27
2018-04-11T22:31:53.588Z,55.13
2018-04-11T22:33:57.690Z,49.87
2018-04-11T22:36:01.699Z,58.60
2018-04-11T22:38:05.759Z,56.13
2018-04-11T22:40:09.884Z,56.33
2018-04-11T22:42:13.905Z,57.50
2018-04-11T22:44:17.954Z,68.77
2018-04-11T22:46:22.169Z,55.93
2018-04-11T22:48:26.180Z,54.53
2018-04-11T22:50:30.239Z,54.80
2018-04-11T22:52:34.272Z,61.90
2018-04-11T22:54:38.287Z,52.23
2018-04-11T22:56:42.346Z,51.37
2018-04-11T22:58:46.435Z,53.53
2018-04-11T23:00:50.439Z,52.97
2018-04-11T23:02:54.483Z,51.43
2018-04-11T23:04:58.515Z,44.00
2018-04-11T23:07:02.566Z,54.33
2018-04-11T23:09:06.626Z,52.23
2018-04-11T23:11:10.662Z,45.60
2018-04-11T23:13:14.730Z,45.43
2018-04-11T23:15:18.787Z,51.53
2018-04-11T23:17:22.849Z,51.93
2018-04-11T23:19:26.938Z,46.10
2018-04-11T23:21:30.994Z,52.13
2018-04-11T23:23:35.078Z,40.20
2018-04-11T23:25:39.118Z,43.77
2018-04-11T23:27:43.268Z,44.03
2018-04-11T23:29:47.324Z,44.53
2018-04-11T23:31:51.358Z,42.70
2018-04-11T23:33:55.396Z,46.43
2018-04-11T23:35:59.466Z,48.57
2018-04-11T23:38:03.510Z,47.40
2018-04-11T23:40:07.546Z,57.73
2018-04-11T23:42:11.611Z,54.63
2018-04-11T23:44:15.706Z,42.10
2018-04-11T23:46:19.745Z,47.07
2018-04-11T23:48:23.811Z,47.43
2018-04-11T23:50:27.848Z,48.03
2018-04-11T23:52:31.926Z,51.03
2018-04-11T23:54:36.024Z,50.33
2018-04-11T23:56:40.071Z,48.47
2018-04-11T23:58:44.191Z,49.30
